Max, Minnesota
Current Conditions -  °F | °C
As of 10:13 PM on Sunday 21 Dec 2014 (Local Time) from KFOZ Reporting Station
Haze Haze  
Wind Chill: 27°   Ceiling: 400
Heat Index: 34°   Visibility: 4mi
Dew Point: 32°   Wind: 8mph
Humidity: 93%   Direction: 160°SSE
Pressure: 29.66"   Gusts: NA
Location:  47.61°N, 94.07°W
Report Text: KFOZ 220413Z AUTO 16007KT 4SM BR OVC004 01/00 A2966 RMK AO2
Loading
Personal Weather Stations






























Interactive Weather Map New forecast layout! Learn more

10-Day Weather Forecast

Advertisements
Track Severe Weather on mobile